Time;durP1;ratioP1;P1;durP2;ratioP2;P2;SDS_P1;SDS_P2;PMS_P1;PMS_P2;Temp;Humidity;BMP_temperature;BMP_pressure;BME280_temperature;BME280_humidity;BME280_pressure;Samples;Min_cycle;Max_cycle;Signal;HPM_P1;HPM_P2
2021/12/01 00:00:34;;;;;;;0.75;0.55;;;;;;;;;;5068093;28;20037;-84
2021/12/01 00:03:00;;;;;;;1.08;0.55;;;;;;;;;;5065011;28;20045;-84
2021/12/01 00:05:27;;;;;;;1.15;0.80;;;;;;;;;;5063877;28;20077;-84
2021/12/01 00:07:53;;;;;;;1.65;1.13;;;;;;;;;;5064005;28;20044;-85
2021/12/01 00:10:19;;;;;;;2.53;1.55;;;;;;;;;;5064077;28;20037;-85
2021/12/01 00:12:46;;;;;;;2.30;1.50;;;;;;;;;;5047741;28;20353;-85
2021/12/01 00:15:12;;;;;;;2.40;1.20;;;;;;;;;;5064428;28;20102;-84
2021/12/01 00:17:38;;;;;;;2.45;1.35;;;;;;;;;;5048130;28;20111;-85
2021/12/01 00:20:05;;;;;;;1.60;1.13;;;;;;;;;;5064001;28;20143;-84
2021/12/01 00:22:31;;;;;;;2.88;1.60;;;;;;;;;;5064804;28;20102;-84
2021/12/01 00:24:57;;;;;;;2.70;1.67;;;;;;;;;;5065571;28;20056;-85
2021/12/01 00:27:23;;;;;;;2.15;1.58;;;;;;;;;;5064436;28;20111;-84
2021/12/01 00:29:49;;;;;;;3.03;1.70;;;;;;;;;;5064545;28;20112;-83
2021/12/01 00:32:16;;;;;;;2.20;1.42;;;;;;;;;;5064176;28;20387;-83
2021/12/01 00:34:42;;;;;;;3.35;2.33;;;;;;;;;;5063895;28;20036;-83
2021/12/01 00:37:08;;;;;;;2.42;1.75;;;;;;;;;;5063352;28;20044;-83
2021/12/01 00:39:34;;;;;;;2.15;1.60;;;;;;;;;;5062729;28;20041;-84
2021/12/01 00:42:00;;;;;;;4.07;2.38;;;;;;;;;;5062132;28;20116;-83
2021/12/01 00:44:29;;;;;;;2.35;1.58;;;;;;;;;;5061585;28;20045;-83
2021/12/01 00:49:27;;;;;;;4.35;2.22;;;;;;;;;;5061722;28;20101;-83
2021/12/01 00:51:53;;;;;;;4.90;2.30;;;;;;;;;;5045711;28;20084;-82
2021/12/01 00:54:19;;;;;;;2.92;1.77;;;;;;;;;;5068260;28;20037;-84
2021/12/01 00:56:45;;;;;;;4.15;2.20;;;;;;;;;;5048432;28;20095;-85
2021/12/01 00:59:11;;;;;;;4.03;2.50;;;;;;;;;;5046015;28;20108;-82
2021/12/01 01:01:38;;;;;;;5.65;2.75;;;;;;;;;;5062097;28;20041;-85
2021/12/01 01:04:04;;;;;;;4.03;2.70;;;;;;;;;;5044575;28;20106;-81
2021/12/01 01:06:30;;;;;;;4.18;3.17;;;;;;;;;;5044640;28;20115;-81
2021/12/01 01:08:56;;;;;;;6.50;3.50;;;;;;;;;;5047203;28;20252;-82
2021/12/01 01:16:52;;;;;;;4.70;3.08;;;;;;;;;;5070689;28;20527;-84
2021/12/01 01:19:18;;;;;;;4.82;2.97;;;;;;;;;;5066590;28;20044;-85
2021/12/01 01:21:47;;;;;;;4.38;2.72;;;;;;;;;;5049661;28;20040;-83
2021/12/01 01:24:13;;;;;;;3.88;2.35;;;;;;;;;;5050307;28;20044;-85
2021/12/01 01:26:39;;;;;;;4.70;2.63;;;;;;;;;;5067159;28;20071;-84
2021/12/01 01:29:06;;;;;;;3.65;2.67;;;;;;;;;;5067113;28;20041;-84
2021/12/01 01:31:32;;;;;;;5.18;2.50;;;;;;;;;;5068596;28;20033;-85
2021/12/01 01:33:58;;;;;;;3.38;2.33;;;;;;;;;;5067295;28;20036;-84
2021/12/01 01:36:24;;;;;;;4.03;2.22;;;;;;;;;;5050799;28;20062;-85
2021/12/01 01:38:50;;;;;;;3.60;2.35;;;;;;;;;;5067439;28;20047;-85
2021/12/01 01:41:16;;;;;;;2.92;2.13;;;;;;;;;;5053770;28;20055;-83
2021/12/01 01:43:42;;;;;;;5.75;2.47;;;;;;;;;;5069813;28;20390;-86
2021/12/01 01:46:08;;;;;;;4.57;2.67;;;;;;;;;;5054744;28;20093;-84
2021/12/01 01:48:45;;;;;;;5.10;2.80;;;;;;;;;;5071081;28;20048;-85
2021/12/01 01:51:11;;;;;;;4.57;2.63;;;;;;;;;;5051233;28;20044;-84
2021/12/01 01:53:37;;;;;;;4.60;2.97;;;;;;;;;;5049420;28;20036;-84
2021/12/01 01:56:04;;;;;;;4.63;2.60;;;;;;;;;;5049966;28;20037;-84
2021/12/01 01:58:30;;;;;;;4.78;2.65;;;;;;;;;;5049125;28;20037;-81
2021/12/01 02:01:06;;;;;;;2.80;2.22;;;;;;;;;;5071800;28;20044;-82
2021/12/01 02:03:32;;;;;;;4.32;2.55;;;;;;;;;;5065756;28;20119;-81
2021/12/01 02:05:58;;;;;;;7.03;2.33;;;;;;;;;;5048701;28;20380;-81
2021/12/01 02:08:35;;;;;;;3.20;2.20;;;;;;;;;;5065782;28;20036;-81
2021/12/01 02:11:02;;;;;;;3.35;2.33;;;;;;;;;;5066179;28;20055;-80
2021/12/01 02:13:28;;;;;;;6.32;2.60;;;;;;;;;;5050173;28;20044;-81
2021/12/01 02:15:55;;;;;;;3.00;1.88;;;;;;;;;;5049003;28;20453;-81
2021/12/01 02:18:21;;;;;;;3.53;2.17;;;;;;;;;;5049470;28;20044;-81
2021/12/01 02:21:02;;;;;;;5.25;2.28;;;;;;;;;;5048344;28;20060;-80
2021/12/01 02:23:28;;;;;;;2.67;1.63;;;;;;;;;;5063650;28;20079;-84
2021/12/01 02:25:54;;;;;;;3.33;2.15;;;;;;;;;;5045856;28;20455;-85
2021/12/01 02:28:20;;;;;;;3.17;1.80;;;;;;;;;;5045898;28;20450;-83
2021/12/01 02:30:46;;;;;;;2.38;1.70;;;;;;;;;;5062325;28;20037;-84
2021/12/01 02:33:12;;;;;;;5.50;1.83;;;;;;;;;;5046639;28;20037;-84
2021/12/01 02:35:38;;;;;;;3.10;1.77;;;;;;;;;;5064208;28;20044;-84
2021/12/01 02:38:04;;;;;;;2.88;1.90;;;;;;;;;;5047143;28;20047;-85
2021/12/01 02:40:30;;;;;;;9.25;2.40;;;;;;;;;;5064384;28;20041;-82
2021/12/01 02:42:56;;;;;;;3.55;2.05;;;;;;;;;;5064123;28;20358;-80
2021/12/01 02:45:22;;;;;;;3.80;2.05;;;;;;;;;;5063753;28;20055;-81
2021/12/01 02:47:48;;;;;;;3.90;2.15;;;;;;;;;;5047379;28;20049;-81
2021/12/01 02:50:15;;;;;;;2.90;2.10;;;;;;;;;;5047065;28;20029;-81
2021/12/01 02:52:41;;;;;;;4.05;2.22;;;;;;;;;;5063829;28;20041;-84
2021/12/01 02:55:09;;;;;;;4.40;2.58;;;;;;;;;;5047930;28;20100;-83
2021/12/01 02:57:42;;;;;;;4.95;2.47;;;;;;;;;;5047183;28;20051;-84
2021/12/01 03:00:08;;;;;;;4.53;2.63;;;;;;;;;;5063067;28;20090;-83
2021/12/01 03:02:35;;;;;;;4.80;2.70;;;;;;;;;;5047041;28;20037;-83
2021/12/01 03:05:01;;;;;;;4.18;2.78;;;;;;;;;;5050283;28;20045;-81
2021/12/01 03:07:27;;;;;;;4.30;2.85;;;;;;;;;;5068761;28;20079;-84
2021/12/01 03:09:53;;;;;;;3.88;2.70;;;;;;;;;;5064402;28;20317;-84
2021/12/01 03:12:19;;;;;;;4.47;2.95;;;;;;;;;;5048038;28;20094;-83
2021/12/01 03:14:45;;;;;;;4.28;3.22;;;;;;;;;;5045651;28;20048;-83
2021/12/01 03:17:11;;;;;;;4.72;3.22;;;;;;;;;;5061065;28;20128;-83
2021/12/01 03:19:37;;;;;;;5.30;3.80;;;;;;;;;;5062722;28;20048;-82
2021/12/01 03:22:03;;;;;;;4.50;3.30;;;;;;;;;;5046315;28;20074;-84
2021/12/01 03:24:32;;;;;;;4.82;3.25;;;;;;;;;;5062759;28;20377;-84
2021/12/01 03:26:58;;;;;;;4.85;3.95;;;;;;;;;;5047046;28;20460;-82
2021/12/01 03:29:24;;;;;;;5.30;3.83;;;;;;;;;;5063115;28;20045;-84
2021/12/01 03:31:50;;;;;;;7.75;4.55;;;;;;;;;;5045850;28;20035;-84
2021/12/01 03:34:16;;;;;;;7.20;3.80;;;;;;;;;;5047387;28;20037;-85
2021/12/01 03:36:42;;;;;;;7.65;3.55;;;;;;;;;;5064473;28;20116;-83
2021/12/01 03:39:08;;;;;;;5.10;3.72;;;;;;;;;;5063279;28;20095;-83
2021/12/01 03:41:34;;;;;;;5.10;3.92;;;;;;;;;;5063767;28;20051;-85
2021/12/01 03:44:01;;;;;;;5.55;4.43;;;;;;;;;;5047841;28;20071;-85
2021/12/01 03:46:27;;;;;;;7.57;4.05;;;;;;;;;;5063758;28;20044;-84
2021/12/01 03:48:53;;;;;;;4.25;3.33;;;;;;;;;;5062565;28;20105;-84
2021/12/01 03:51:19;;;;;;;7.20;4.43;;;;;;;;;;5063225;28;20036;-83
2021/12/01 03:53:44;;;;;;;5.95;4.25;;;;;;;;;;5045336;28;20044;-84
2021/12/01 03:56:14;;;;;;;7.90;4.72;;;;;;;;;;5062680;28;20037;-83
2021/12/01 03:58:40;;;;;;;6.60;4.30;;;;;;;;;;5044782;28;20128;-83
2021/12/01 04:01:10;;;;;;;5.43;4.20;;;;;;;;;;5062905;28;20068;-83
2021/12/01 04:03:36;;;;;;;6.07;4.55;;;;;;;;;;5062765;28;20037;-84
2021/12/01 04:06:02;;;;;;;6.28;4.60;;;;;;;;;;5046444;28;20056;-83
2021/12/01 04:08:28;;;;;;;8.20;5.32;;;;;;;;;;5046226;28;20445;-83
2021/12/01 04:10:54;;;;;;;6.60;4.28;;;;;;;;;;5066557;28;20037;-83
2021/12/01 04:13:20;;;;;;;5.63;4.15;;;;;;;;;;5066154;28;20061;-83
2021/12/01 04:15:46;;;;;;;5.65;4.45;;;;;;;;;;5045882;28;20059;-85
2021/12/01 04:18:12;;;;;;;7.03;4.10;;;;;;;;;;5062996;28;20041;-85
2021/12/01 04:20:38;;;;;;;5.32;3.85;;;;;;;;;;5062972;28;20166;-83
2021/12/01 04:23:04;;;;;;;6.40;4.43;;;;;;;;;;5063459;28;20037;-84
2021/12/01 04:25:30;;;;;;;6.47;4.30;;;;;;;;;;5062023;28;20041;-83
2021/12/01 04:27:57;;;;;;;8.93;4.43;;;;;;;;;;5045791;28;20041;-83
2021/12/01 04:30:24;;;;;;;5.05;3.40;;;;;;;;;;5045147;28;20037;-82
2021/12/01 04:32:51;;;;;;;5.00;3.38;;;;;;;;;;5062013;28;20028;-83
2021/12/01 04:35:18;;;;;;;4.47;3.40;;;;;;;;;;5062059;28;20032;-82
2021/12/01 04:37:44;;;;;;;4.65;2.95;;;;;;;;;;5045857;28;20037;-83
2021/12/01 04:40:11;;;;;;;4.53;3.38;;;;;;;;;;5044363;28;20037;-82
2021/12/01 04:42:37;;;;;;;4.25;3.42;;;;;;;;;;5061378;28;20040;-82
2021/12/01 04:45:03;;;;;;;5.60;3.50;;;;;;;;;;5062684;28;20104;-83
2021/12/01 04:47:33;;;;;;;4.43;3.33;;;;;;;;;;5065716;28;20041;-83
2021/12/01 04:49:59;;;;;;;6.07;4.15;;;;;;;;;;5065680;28;20045;-83
2021/12/01 04:52:25;;;;;;;5.18;3.75;;;;;;;;;;5064731;28;20037;-84
2021/12/01 04:54:51;;;;;;;4.82;3.72;;;;;;;;;;5048621;28;20391;-84
2021/12/01 04:57:17;;;;;;;8.50;4.50;;;;;;;;;;5066590;28;20097;-84
2021/12/01 04:59:43;;;;;;;7.38;4.68;;;;;;;;;;5069873;28;20048;-84
2021/12/01 05:02:09;;;;;;;6.93;4.63;;;;;;;;;;5069850;28;20037;-83
2021/12/01 05:04:35;;;;;;;5.35;3.97;;;;;;;;;;5066797;28;20116;-84
2021/12/01 05:07:01;;;;;;;7.90;5.03;;;;;;;;;;5066225;28;20037;-82
2021/12/01 05:09:27;;;;;;;6.50;4.40;;;;;;;;;;5066864;28;20052;-85
2021/12/01 05:11:53;;;;;;;5.78;4.40;;;;;;;;;;5049838;28;20112;-83
2021/12/01 05:14:20;;;;;;;7.15;4.15;;;;;;;;;;5050418;28;20071;-84
2021/12/01 05:16:46;;;;;;;6.13;3.50;;;;;;;;;;5068135;28;20112;-79
2021/12/01 05:19:12;;;;;;;5.55;4.28;;;;;;;;;;5066001;28;20086;-80
2021/12/01 05:21:39;;;;;;;5.95;4.25;;;;;;;;;;5065760;28;20045;-81
2021/12/01 05:24:05;;;;;;;8.85;5.25;;;;;;;;;;5064492;28;20041;-81
2021/12/01 05:26:31;;;;;;;6.85;4.65;;;;;;;;;;5047979;28;20174;-82
2021/12/01 05:28:57;;;;;;;8.30;5.20;;;;;;;;;;5064505;28;20093;-81
2021/12/01 05:31:23;;;;;;;7.60;4.85;;;;;;;;;;5063280;28;20063;-80
2021/12/01 05:33:49;;;;;;;7.15;4.60;;;;;;;;;;5064554;28;20075;-81
2021/12/01 05:36:15;;;;;;;6.88;4.80;;;;;;;;;;5064557;28;20041;-81
2021/12/01 05:38:42;;;;;;;5.82;3.63;;;;;;;;;;5061765;28;20040;-79
2021/12/01 05:41:08;;;;;;;6.95;4.40;;;;;;;;;;5063290;28;20041;-78
2021/12/01 05:43:34;;;;;;;6.95;4.95;;;;;;;;;;5065218;28;20138;-81
2021/12/01 05:46:00;;;;;;;7.05;4.22;;;;;;;;;;5068986;28;20045;-80
2021/12/01 05:48:26;;;;;;;6.53;4.70;;;;;;;;;;5049471;28;20063;-81
2021/12/01 05:50:52;;;;;;;5.20;3.85;;;;;;;;;;5064052;28;20043;-82
2021/12/01 05:53:18;;;;;;;5.22;4.00;;;;;;;;;;5065172;28;20431;-80
2021/12/01 05:55:44;;;;;;;6.38;4.35;;;;;;;;;;5064108;28;20041;-82
2021/12/01 05:58:10;;;;;;;7.75;4.22;;;;;;;;;;5047320;28;20037;-80
2021/12/01 06:00:36;;;;;;;6.53;4.05;;;;;;;;;;5065088;28;20045;-81
2021/12/01 06:03:02;;;;;;;6.97;4.25;;;;;;;;;;5046877;28;20041;-82
2021/12/01 06:05:28;;;;;;;11.63;4.30;;;;;;;;;;5046849;28;20103;-81
2021/12/01 06:07:54;;;;;;;7.47;4.40;;;;;;;;;;5045095;28;20911;-79
2021/12/01 06:10:20;;;;;;;4.90;3.40;;;;;;;;;;5061724;28;20061;-80
2021/12/01 06:12:46;;;;;;;7.57;3.45;;;;;;;;;;5060905;28;20338;-79
2021/12/01 06:15:14;;;;;;;7.30;3.47;;;;;;;;;;5061763;28;20056;-79
2021/12/01 06:17:40;;;;;;;5.85;3.38;;;;;;;;;;5060916;28;20437;-79
2021/12/01 06:20:06;;;;;;;5.70;3.47;;;;;;;;;;5060822;28;20520;-79
2021/12/01 06:22:32;;;;;;;6.13;2.78;;;;;;;;;;5068218;28;20089;-79
2021/12/01 06:24:58;;;;;;;4.28;2.70;;;;;;;;;;5062661;28;20040;-79
2021/12/01 06:27:25;;;;;;;6.25;3.38;;;;;;;;;;5043102;28;20408;-79
2021/12/01 06:29:51;;;;;;;4.47;2.83;;;;;;;;;;5060894;28;20036;-80
2021/12/01 06:32:17;;;;;;;4.45;2.58;;;;;;;;;;5043997;28;20059;-80
2021/12/01 06:34:43;;;;;;;6.05;3.47;;;;;;;;;;5060645;28;20029;-79
2021/12/01 06:37:09;;;;;;;4.45;2.97;;;;;;;;;;5061240;28;20036;-79
2021/12/01 06:39:35;;;;;;;6.28;3.42;;;;;;;;;;5060957;28;20056;-79
2021/12/01 06:42:01;;;;;;;6.50;3.20;;;;;;;;;;5061593;28;20041;-79
2021/12/01 06:44:30;;;;;;;5.82;3.45;;;;;;;;;;5061894;28;20048;-79
2021/12/01 06:46:56;;;;;;;5.00;3.50;;;;;;;;;;5061289;28;20041;-79
2021/12/01 06:49:22;;;;;;;4.25;2.95;;;;;;;;;;5066354;28;20037;-79
2021/12/01 06:51:48;;;;;;;6.07;3.55;;;;;;;;;;5075513;28;20051;-79
2021/12/01 06:54:14;;;;;;;3.80;2.92;;;;;;;;;;5069026;28;20045;-79
2021/12/01 06:56:40;;;;;;;6.07;3.15;;;;;;;;;;5057570;28;20341;-79
2021/12/01 06:59:06;;;;;;;4.88;3.60;;;;;;;;;;5057989;28;20041;-78
2021/12/01 07:01:32;;;;;;;5.78;3.45;;;;;;;;;;5060696;28;20068;-79
2021/12/01 07:03:58;;;;;;;4.63;2.85;;;;;;;;;;5061525;28;20033;-79
2021/12/01 07:06:24;;;;;;;4.63;3.00;;;;;;;;;;5060969;28;20037;-79
2021/12/01 07:08:50;;;;;;;5.18;3.10;;;;;;;;;;5060217;28;20068;-80
2021/12/01 07:11:16;;;;;;;4.25;2.75;;;;;;;;;;5043430;28;20045;-79
2021/12/01 07:13:42;;;;;;;2.63;2.30;;;;;;;;;;5041983;28;20043;-79
2021/12/01 07:16:08;;;;;;;5.82;2.88;;;;;;;;;;5059436;28;20105;-79
2021/12/01 07:18:34;;;;;;;3.95;2.65;;;;;;;;;;5042818;28;20041;-79
2021/12/01 07:21:00;;;;;;;5.75;2.80;;;;;;;;;;5060326;28;20449;-79
2021/12/01 07:23:26;;;;;;;4.32;2.72;;;;;;;;;;5061180;28;20163;-78
2021/12/01 07:25:52;;;;;;;2.70;1.95;;;;;;;;;;5062259;28;20416;-78
2021/12/01 07:28:18;;;;;;;2.92;2.05;;;;;;;;;;5067948;28;20056;-79
2021/12/01 07:30:44;;;;;;;4.10;2.30;;;;;;;;;;5045784;28;20068;-79
2021/12/01 07:33:10;;;;;;;3.90;2.20;;;;;;;;;;5044091;28;20041;-79
2021/12/01 07:35:36;;;;;;;3.00;1.90;;;;;;;;;;5058489;28;20410;-79
2021/12/01 07:38:02;;;;;;;2.58;1.95;;;;;;;;;;5058833;28;20048;-79
2021/12/01 07:40:28;;;;;;;2.42;1.70;;;;;;;;;;5058141;28;20060;-79
2021/12/01 07:42:54;;;;;;;2.78;1.60;;;;;;;;;;5060723;28;20134;-79
2021/12/01 07:45:20;;;;;;;2.42;1.60;;;;;;;;;;5039933;28;20041;-79
2021/12/01 07:47:46;;;;;;;2.58;1.75;;;;;;;;;;5055714;28;20037;-79
2021/12/01 07:50:12;;;;;;;2.58;1.65;;;;;;;;;;5056269;28;20037;-79
2021/12/01 07:52:41;;;;;;;3.00;1.55;;;;;;;;;;5056760;28;20102;-79
2021/12/01 07:55:07;;;;;;;3.17;1.75;;;;;;;;;;5056000;28;20080;-79
2021/12/01 07:57:33;;;;;;;6.03;1.80;;;;;;;;;;5056151;28;20057;-79
2021/12/01 07:59:59;;;;;;;3.85;1.83;;;;;;;;;;5056697;28;20045;-79
2021/12/01 08:02:25;;;;;;;3.40;1.75;;;;;;;;;;5055763;28;20071;-79
2021/12/01 08:04:51;;;;;;;1.95;1.30;;;;;;;;;;5056758;28;20052;-79
2021/12/01 08:07:18;;;;;;;1.85;1.33;;;;;;;;;;5056490;28;20045;-79
2021/12/01 08:09:44;;;;;;;2.17;1.38;;;;;;;;;;5038941;28;20118;-79
2021/12/01 08:12:11;;;;;;;4.13;1.40;;;;;;;;;;5058158;28;20058;-79
2021/12/01 08:14:37;;;;;;;4.15;1.27;;;;;;;;;;5060503;28;20055;-80
2021/12/01 08:17:03;;;;;;;1.73;0.88;;;;;;;;;;5058773;28;20073;-79
2021/12/01 08:19:29;;;;;;;1.10;0.80;;;;;;;;;;5046111;28;20496;-79
2021/12/01 08:21:55;;;;;;;1.52;1.00;;;;;;;;;;5064154;28;20041;-80
2021/12/01 08:24:21;;;;;;;2.15;1.27;;;;;;;;;;5047148;28;20081;-80
2021/12/01 08:26:47;;;;;;;2.65;1.00;;;;;;;;;;5063282;28;20093;-79
2021/12/01 08:29:13;;;;;;;0.73;0.60;;;;;;;;;;5065763;28;20062;-81
2021/12/01 08:31:39;;;;;;;2.08;1.10;;;;;;;;;;5065861;28;20048;-80
2021/12/01 08:34:05;;;;;;;2.20;0.90;;;;;;;;;;5073437;28;20041;-80
2021/12/01 08:36:32;;;;;;;1.65;0.88;;;;;;;;;;5067381;28;20128;-81
2021/12/01 08:38:58;;;;;;;1.02;0.60;;;;;;;;;;5065173;28;20040;-79
2021/12/01 08:41:24;;;;;;;2.17;1.33;;;;;;;;;;5065255;28;20099;-80
2021/12/01 08:43:51;;;;;;;2.40;1.00;;;;;;;;;;5064942;28;20040;-79
2021/12/01 08:46:17;;;;;;;1.70;1.00;;;;;;;;;;5048113;28;20465;-80
2021/12/01 08:48:43;;;;;;;3.15;1.20;;;;;;;;;;5047151;28;20041;-79
2021/12/01 08:51:09;;;;;;;4.35;1.73;;;;;;;;;;5065266;28;20388;-79
2021/12/01 08:53:36;;;;;;;1.70;0.93;;;;;;;;;;5065537;28;20116;-80
2021/12/01 08:56:02;;;;;;;2.38;1.00;;;;;;;;;;5065160;28;20037;-81
2021/12/01 08:58:28;;;;;;;1.83;0.88;;;;;;;;;;5064910;28;20415;-80
2021/12/01 09:00:55;;;;;;;1.58;0.77;;;;;;;;;;5048541;28;20433;-81
2021/12/01 09:03:22;;;;;;;3.35;1.13;;;;;;;;;;5065180;28;20041;-80
2021/12/01 09:05:48;;;;;;;1.00;0.70;;;;;;;;;;5047915;28;20064;-80
2021/12/01 09:08:14;;;;;;;3.47;0.88;;;;;;;;;;5065566;28;20045;-80
2021/12/01 09:10:40;;;;;;;2.08;0.90;;;;;;;;;;5064632;28;20052;-79
2021/12/01 09:13:06;;;;;;;2.35;0.90;;;;;;;;;;5064567;28;20041;-80
2021/12/01 09:15:33;;;;;;;2.40;0.90;;;;;;;;;;5064666;28;20128;-81
2021/12/01 09:17:59;;;;;;;1.73;0.82;;;;;;;;;;5065171;28;20061;-82
2021/12/01 09:20:25;;;;;;;2.22;1.10;;;;;;;;;;5065109;28;20029;-80
2021/12/01 09:22:51;;;;;;;1.48;0.90;;;;;;;;;;5064941;28;20033;-80
2021/12/01 09:25:17;;;;;;;7.38;1.08;;;;;;;;;;5066105;28;20064;-81
2021/12/01 09:27:44;;;;;;;1.08;0.70;;;;;;;;;;5065405;28;20065;-80
2021/12/01 09:30:11;;;;;;;2.42;1.05;;;;;;;;;;5064969;28;20033;-80
2021/12/01 09:32:38;;;;;;;1.48;0.80;;;;;;;;;;5063045;28;20099;-79
2021/12/01 09:35:04;;;;;;;1.85;1.10;;;;;;;;;;5063048;28;20052;-80
2021/12/01 09:37:30;;;;;;;1.70;1.13;;;;;;;;;;5063284;28;20132;-78
2021/12/01 09:39:56;;;;;;;2.35;1.00;;;;;;;;;;5074205;28;20037;-79
2021/12/01 09:42:22;;;;;;;1.73;0.93;;;;;;;;;;5051495;28;20064;-77
2021/12/01 09:44:48;;;;;;;2.72;1.23;;;;;;;;;;5070804;28;20053;-79
2021/12/01 09:47:18;;;;;;;2.20;1.20;;;;;;;;;;5063595;28;20037;-79
2021/12/01 09:49:44;;;;;;;3.10;1.08;;;;;;;;;;5062566;28;20059;-78
2021/12/01 09:52:11;;;;;;;2.17;0.93;;;;;;;;;;5063976;28;20037;-80
2021/12/01 09:54:38;;;;;;;1.42;0.73;;;;;;;;;;5062567;28;20360;-80
2021/12/01 09:57:04;;;;;;;3.17;0.88;;;;;;;;;;5063194;28;20128;-80
2021/12/01 09:59:30;;;;;;;2.05;0.80;;;;;;;;;;5063535;28;20048;-80
2021/12/01 10:01:56;;;;;;;2.50;0.70;;;;;;;;;;5062503;28;20048;-79
2021/12/01 10:04:24;;;;;;;2.10;0.93;;;;;;;;;;5064324;28;20037;-79
2021/12/01 10:06:50;;;;;;;1.42;0.75;;;;;;;;;;5063575;28;20093;-80
2021/12/01 10:09:16;;;;;;;1.23;0.70;;;;;;;;;;5045287;28;20057;-79
2021/12/01 10:11:42;;;;;;;1.00;0.52;;;;;;;;;;5062618;28;20098;-80
2021/12/01 10:14:12;;;;;;;1.80;0.70;;;;;;;;;;5064569;28;20044;-80
2021/12/01 10:16:38;;;;;;;2.25;1.20;;;;;;;;;;5065302;28;20057;-80
2021/12/01 10:19:05;;;;;;;2.72;0.82;;;;;;;;;;5067782;28;20352;-80
2021/12/01 10:21:38;;;;;;;1.67;0.77;;;;;;;;;;5063302;28;20072;-80
2021/12/01 10:24:07;;;;;;;1.60;0.90;;;;;;;;;;5045038;28;20068;-80
2021/12/01 10:26:34;;;;;;;0.93;0.63;;;;;;;;;;5062946;28;20099;-79
2021/12/01 10:29:01;;;;;;;1.15;0.75;;;;;;;;;;5061857;28;20037;-79
2021/12/01 10:31:35;;;;;;;1.80;1.05;;;;;;;;;;5060977;28;20052;-79
2021/12/01 10:34:13;;;;;;;2.05;0.93;;;;;;;;;;5062696;28;20068;-79
2021/12/01 10:36:39;;;;;;;2.00;1.00;;;;;;;;;;5061128;28;20041;-79
2021/12/01 10:39:05;;;;;;;1.67;1.00;;;;;;;;;;5061138;28;20041;-79
2021/12/01 10:41:36;;;;;;;1.92;1.08;;;;;;;;;;5061624;28;20051;-79
2021/12/01 10:44:08;;;;;;;1.70;0.80;;;;;;;;;;5062049;28;20061;-81
2021/12/01 10:46:42;;;;;;;2.03;1.00;;;;;;;;;;5068085;28;20112;-81
2021/12/01 10:49:08;;;;;;;2.40;0.80;;;;;;;;;;5044959;28;20258;-77
2021/12/01 10:51:38;;;;;;;1.90;0.70;;;;;;;;;;5062368;28;20064;-78
2021/12/01 10:54:04;;;;;;;2.10;0.77;;;;;;;;;;5045695;28;20044;-81
2021/12/01 10:56:31;;;;;;;1.60;1.20;;;;;;;;;;5062076;28;20075;-79
2021/12/01 10:58:57;;;;;;;1.40;0.80;;;;;;;;;;5061492;28;20113;-79
2021/12/01 11:01:23;;;;;;;2.85;0.93;;;;;;;;;;5046008;28;20071;-79
2021/12/01 11:03:51;;;;;;;2.17;1.20;;;;;;;;;;5061984;28;20479;-78
2021/12/01 11:06:21;;;;;;;2.85;1.13;;;;;;;;;;5062138;28;20044;-80
2021/12/01 11:08:48;;;;;;;1.13;0.75;;;;;;;;;;5044781;28;20130;-79
2021/12/01 11:11:15;;;;;;;2.38;1.10;;;;;;;;;;5062294;28;20095;-78
2021/12/01 11:13:41;;;;;;;1.50;0.80;;;;;;;;;;5062182;28;20036;-79
2021/12/01 11:16:08;;;;;;;1.30;0.93;;;;;;;;;;5060362;28;20077;-79
2021/12/01 11:18:35;;;;;;;2.30;1.38;;;;;;;;;;5043230;28;20052;-79
2021/12/01 11:21:03;;;;;;;2.80;1.00;;;;;;;;;;5060728;28;20413;-78
2021/12/01 11:23:33;;;;;;;2.58;1.20;;;;;;;;;;5059821;28;20048;-79
2021/12/01 11:26:09;;;;;;;3.95;1.05;;;;;;;;;;5060997;28;20041;-79
2021/12/01 11:28:40;;;;;;;2.60;1.40;;;;;;;;;;5060211;28;20064;-79
2021/12/01 11:31:10;;;;;;;2.05;1.30;;;;;;;;;;5060425;28;20083;-79
2021/12/01 11:33:37;;;;;;;2.30;1.45;;;;;;;;;;5061364;28;20037;-79
2021/12/01 11:36:06;;;;;;;2.83;1.30;;;;;;;;;;5043336;28;20037;-79
2021/12/01 11:38:33;;;;;;;2.85;1.67;;;;;;;;;;5059871;28;20115;-79
2021/12/01 11:40:59;;;;;;;1.65;1.40;;;;;;;;;;5059365;28;20102;-80
2021/12/01 11:43:26;;;;;;;1.42;1.17;;;;;;;;;;5059408;28;20051;-79
2021/12/01 11:45:52;;;;;;;1.90;1.02;;;;;;;;;;5042809;28;20108;-79
2021/12/01 11:48:18;;;;;;;2.03;1.27;;;;;;;;;;5059942;28;20049;-79
2021/12/01 11:51:07;;;;;;;1.92;1.23;;;;;;;;;;5064921;28;20048;-77
2021/12/01 11:53:36;;;;;;;3.15;1.52;;;;;;;;;;5056543;28;20041;-79
2021/12/01 11:56:17;;;;;;;1.83;1.10;;;;;;;;;;5061209;28;20044;-79
2021/12/01 11:58:46;;;;;;;1.90;1.20;;;;;;;;;;5060271;28;20092;-79
2021/12/01 12:01:22;;;;;;;0.82;0.75;;;;;;;;;;5059201;28;20075;-78
2021/12/01 12:03:48;;;;;;;1.40;0.68;;;;;;;;;;5059170;28;20052;-79
2021/12/01 12:06:24;;;;;;;1.38;0.82;;;;;;;;;;5058931;28;20044;-78
2021/12/01 12:09:00;;;;;;;1.77;0.90;;;;;;;;;;5042010;28;20437;-79
2021/12/01 12:11:33;;;;;;;1.20;0.73;;;;;;;;;;5043569;28;20071;-79
2021/12/01 12:14:04;;;;;;;0.63;0.52;;;;;;;;;;5060830;28;20060;-80
2021/12/01 12:16:30;;;;;;;3.15;0.80;;;;;;;;;;5044529;28;20057;-80
2021/12/01 12:18:57;;;;;;;0.75;0.55;;;;;;;;;;5061553;28;20041;-80
2021/12/01 12:21:48;;;;;;;1.38;0.60;;;;;;;;;;5063067;28;20048;-80
2021/12/01 12:24:12;;;;;;;7.18;0.47;;;;;;;;;;5061786;28;20052;-81
2021/12/01 12:26:44;;;;;;;1.25;0.52;;;;;;;;;;5061982;28;20045;-80
2021/12/01 12:29:19;;;;;;;1.10;0.55;;;;;;;;;;5045161;28;20517;-81
2021/12/01 12:31:47;;;;;;;0.75;0.47;;;;;;;;;;5061098;28;20029;-81
2021/12/01 12:34:17;;;;;;;1.25;0.50;;;;;;;;;;5061816;28;20103;-81
2021/12/01 12:36:53;;;;;;;1.40;0.82;;;;;;;;;;5059761;28;20421;-81
2021/12/01 12:39:21;;;;;;;1.35;0.80;;;;;;;;;;5042422;28;20044;-81
2021/12/01 12:42:04;;;;;;;2.88;1.45;;;;;;;;;;5042157;28;20142;-81
2021/12/01 12:44:34;;;;;;;4.28;1.60;;;;;;;;;;5058668;28;20037;-81
2021/12/01 12:47:01;;;;;;;5.32;1.80;;;;;;;;;;5059380;28;20041;-81
2021/12/01 12:49:39;;;;;;;3.17;1.73;;;;;;;;;;5042764;28;20067;-79
2021/12/01 12:52:24;;;;;;;6.15;1.83;;;;;;;;;;5059413;28;20033;-79
2021/12/01 12:54:54;;;;;;;4.55;2.25;;;;;;;;;;5059361;28;20045;-79
2021/12/01 12:57:20;;;;;;;4.15;2.35;;;;;;;;;;5064015;28;20063;-81
2021/12/01 12:59:46;;;;;;;7.03;2.50;;;;;;;;;;5059264;28;20488;-79
2021/12/01 13:02:15;;;;;;;4.72;2.15;;;;;;;;;;5059849;28;20112;-80
2021/12/01 13:05:02;;;;;;;3.78;2.30;;;;;;;;;;5061110;28;20120;-80
2021/12/01 13:07:34;;;;;;;4.13;1.70;;;;;;;;;;5064671;28;20048;-80
2021/12/01 13:10:15;;;;;;;3.13;1.70;;;;;;;;;;5062480;28;20096;-79
2021/12/01 13:12:44;;;;;;;3.38;1.52;;;;;;;;;;5064075;28;20108;-80
2021/12/01 13:15:30;;;;;;;8.30;1.50;;;;;;;;;;5067688;28;20109;-79
2021/12/01 13:17:57;;;;;;;3.65;1.40;;;;;;;;;;5067682;28;20428;-79
2021/12/01 13:20:25;;;;;;;3.22;1.25;;;;;;;;;;5068071;28;20047;-79
2021/12/01 13:23:00;;;;;;;4.90;1.60;;;;;;;;;;5047188;28;20037;-81
2021/12/01 13:25:26;;;;;;;4.88;1.90;;;;;;;;;;5062793;28;20033;-78
2021/12/01 13:27:52;;;;;;;6.15;2.00;;;;;;;;;;5064275;28;20082;-78
2021/12/01 13:30:18;;;;;;;3.17;1.63;;;;;;;;;;5065017;28;20040;-79
2021/12/01 13:32:44;;;;;;;4.05;1.70;;;;;;;;;;5063113;28;20041;-78
2021/12/01 13:35:10;;;;;;;8.70;2.33;;;;;;;;;;5062871;28;20116;-79
2021/12/01 13:37:36;;;;;;;7.03;2.22;;;;;;;;;;5046625;28;20064;-79
2021/12/01 13:40:10;;;;;;;5.07;2.58;;;;;;;;;;5064141;28;20079;-78
2021/12/01 13:42:36;;;;;;;7.45;3.13;;;;;;;;;;5063505;28;20064;-78
2021/12/01 13:45:02;;;;;;;6.72;2.45;;;;;;;;;;5046283;28;20033;-81
2021/12/01 13:47:30;;;;;;;4.68;2.15;;;;;;;;;;5063832;28;20423;-79
2021/12/01 13:50:03;;;;;;;5.32;2.33;;;;;;;;;;5046060;28;20392;-78
2021/12/01 13:52:29;;;;;;;;;;;;;;;;;;5061561;28;20036;-80
2021/12/01 13:54:55;;;;;;;5.32;2.05;;;;;;;;;;5063343;28;20272;-80
2021/12/01 13:57:21;;;;;;;6.18;2.50;;;;;;;;;;5062339;28;20073;-79
2021/12/01 13:59:48;;;;;;;5.53;2.42;;;;;;;;;;5046943;28;20064;-81
2021/12/01 14:02:27;;;;;;;4.00;1.70;;;;;;;;;;5051658;28;20045;-82
2021/12/01 14:04:54;;;;;;;3.78;1.52;;;;;;;;;;5049420;28;20051;-85
2021/12/01 14:07:21;;;;;;;6.05;1.90;;;;;;;;;;5046096;28;20467;-81
2021/12/01 14:10:16;;;;;;;9.73;2.20;;;;;;;;;;5062102;28;20079;-82
2021/12/01 14:13:02;;;;;;;6.85;1.83;;;;;;;;;;5052652;28;20326;-80
2021/12/01 14:15:29;;;;;;;8.10;2.03;;;;;;;;;;5061745;28;20076;-81
2021/12/01 14:17:55;;;;;;;5.35;1.95;;;;;;;;;;5046255;28;20044;-81
2021/12/01 14:20:25;;;;;;;2.88;1.73;;;;;;;;;;5062195;28;20040;-81
2021/12/01 14:22:52;;;;;;;8.27;1.83;;;;;;;;;;5045768;28;20040;-83
2021/12/01 14:25:20;;;;;;;8.07;1.65;;;;;;;;;;5045467;28;20200;-83
2021/12/01 14:27:46;;;;;;;6.15;2.00;;;;;;;;;;5045875;28;20037;-82
2021/12/01 14:30:14;;;;;;;5.43;1.98;;;;;;;;;;5044483;28;20045;-79
2021/12/01 14:32:40;;;;;;;7.28;1.58;;;;;;;;;;5061247;28;20430;-80
2021/12/01 14:35:07;;;;;;;7.40;1.80;;;;;;;;;;5061200;28;20128;-79
2021/12/01 14:37:34;;;;;;;7.10;1.40;;;;;;;;;;5062697;28;20037;-76
2021/12/01 14:40:19;;;;;;;5.22;1.40;;;;;;;;;;5062845;28;20037;-80
2021/12/01 14:42:45;;;;;;;4.93;1.38;;;;;;;;;;5044135;28;20045;-78
2021/12/01 14:45:12;;;;;;;2.15;0.98;;;;;;;;;;5060919;28;20044;-78
2021/12/01 14:47:38;;;;;;;3.90;1.45;;;;;;;;;;5059270;28;20467;-79
2021/12/01 14:50:04;;;;;;;3.53;1.20;;;;;;;;;;5059805;28;20051;-79
2021/12/01 14:52:36;;;;;;;5.35;1.10;;;;;;;;;;5061124;28;20065;-78